Mobile, AL (36601)

9:26 PM CST on December 04, 2016 (GMT -0600)
Downtown Waterfront | | Change Station

Elev 13 ft 30.69 °N, 88.04 °W | Updated 1 second ago

Rain
Rain
62.3 °F
Feels Like 62.3 °F
N
1.0
Wind Variable Wind from NNE
Gusts 12.0 mph

Today
High -- | Low -- °F
--% Chance of Precip.
Yesterday
High -- | Low -- °F
Precip. -- in
Pressure 29.97 in
Visibility 10.0 miles
Clouds Few 700 ft
Mostly Cloudy 7000 ft
Overcast 8000 ft
Dew Point 60 °F
Humidity 94%
Rainfall 1.96 in
Snow Depth Not available.
6:34 AM 4:50 PM
Waxing Crescent, 27% visible
SPECI KBFM 050310Z AUTO 36005KT 10SM FEW007 BKN070 OVC080 18/18 A2997 RMK AO2 RAE00 P0000 T01830178
Pressure 29.97 in
Visibility 10.0 miles
Clouds Few 700 ft
Mostly Cloudy 7000 ft
Overcast 8000 ft
Dew Point 60 °F
Humidity 94%
Rainfall 1.96 in
Snow Depth Not available.
6:34 AM 4:50 PM
Waxing Crescent, 27% visible
SPECI KBFM 050310Z AUTO 36005KT 10SM FEW007 BKN070 OVC080 18/18 A2997 RMK AO2 RAE00 P0000 T01830178

10-Day Weather Forecast

Almanac

Astronomy

Dec. 04, 2016 Rise Set
Actual Time
Civil Twilight
Nautical Twilight
Astronomical Twilight
Moon
Length of Visible Light
Length of Day
Tomorrow will be .
, % of the Moon is Illuminated

Today's Extremes

State Highs State Lows

Community

WunderPhotos

Upload Photos

1,955,752 photos uploaded!

WunderBlog® & News

Nearby

Air Quality

  Air Quality AQ Index Pollutant
Not available.

Snow Depth

Station Depth Elevation

Earthquake Activity

City Distance Mag. Time & Date
Minimum magnitude displayed is 2.5.

Coastal Water Temperatures

Place Temperature

Stations

Nearby Weather Stations

Station Location Temp. Windchill Dew Point Humidity Wind Precip. Elev Updated Type
                   

Watches & Warnings

There are currently no watches in effect.